createdAt,value
2018-06-08T00:00:48.157Z,23.30
2018-06-08T00:02:51.296Z,23.30
2018-06-08T00:04:54.444Z,23.30
2018-06-08T00:06:57.571Z,23.20
2018-06-08T00:09:00.748Z,23.20
2018-06-08T00:11:03.896Z,23.20
2018-06-08T00:13:07.130Z,23.10
2018-06-08T00:15:10.289Z,23.10
2018-06-08T00:17:13.445Z,23.10
2018-06-08T00:19:16.576Z,23.00
2018-06-08T00:21:19.724Z,23.00
2018-06-08T00:23:22.855Z,22.90
2018-06-08T00:25:26.051Z,22.90
2018-06-08T00:27:29.299Z,22.90
2018-06-08T00:29:32.462Z,22.90
2018-06-08T00:31:35.607Z,22.90
2018-06-08T00:33:39.104Z,22.80
2018-06-08T00:35:42.336Z,22.80
2018-06-08T00:37:45.505Z,22.80
2018-06-08T00:39:48.732Z,22.80
2018-06-08T00:41:51.916Z,22.80
2018-06-08T00:43:55.093Z,22.80
2018-06-08T00:45:58.270Z,22.80
2018-06-08T00:48:01.412Z,22.70
2018-06-08T00:50:04.602Z,22.70
2018-06-08T00:52:07.733Z,22.60
2018-06-08T00:54:10.869Z,22.60
2018-06-08T00:56:25.496Z,22.60
2018-06-08T00:58:28.626Z,22.60
2018-06-08T01:00:31.761Z,22.50
2018-06-08T01:02:34.893Z,22.50
2018-06-08T01:04:38.093Z,22.40
2018-06-08T01:06:41.934Z,22.40
2018-06-08T01:08:45.059Z,22.40
2018-06-08T01:10:48.236Z,22.40
2018-06-08T01:12:51.367Z,22.40
2018-06-08T01:14:54.504Z,22.30
2018-06-08T01:16:58.386Z,22.40
2018-06-08T01:19:01.512Z,22.30
2018-06-08T01:21:04.657Z,22.30
2018-06-08T01:23:07.769Z,22.30
2018-06-08T01:25:10.937Z,22.30
2018-06-08T01:27:14.095Z,22.30
2018-06-08T01:29:17.244Z,22.30
2018-06-08T01:31:20.402Z,22.30
2018-06-08T01:33:23.528Z,22.20
2018-06-08T01:35:26.696Z,22.20
2018-06-08T01:37:30.141Z,22.20
2018-06-08T01:39:33.278Z,22.20
2018-06-08T01:41:36.625Z,22.20
2018-06-08T01:43:39.761Z,22.10
2018-06-08T01:45:42.933Z,22.10
2018-06-08T01:47:46.084Z,22.10
2018-06-08T01:49:49.239Z,22.10
2018-06-08T01:51:52.393Z,22.10
2018-06-08T01:53:56.165Z,22.00
2018-06-08T01:55:59.339Z,22.00
2018-06-08T01:58:03.184Z,22.00
2018-06-08T02:00:06.372Z,22.00
2018-06-08T02:02:09.520Z,21.90
2018-06-08T02:04:12.684Z,21.90
2018-06-08T02:06:15.872Z,21.90
2018-06-08T02:08:19.025Z,21.90
2018-06-08T02:10:22.206Z,21.90
2018-06-08T02:12:25.348Z,21.90
2018-06-08T02:14:28.592Z,21.80
2018-06-08T02:16:31.752Z,21.80
2018-06-08T02:18:34.921Z,21.80
2018-06-08T02:20:38.105Z,21.80
2018-06-08T02:22:41.271Z,21.80
2018-06-08T02:24:44.420Z,21.70
2018-06-08T02:26:47.594Z,21.70
2018-06-08T02:28:50.747Z,21.70
2018-06-08T02:30:53.921Z,21.70
2018-06-08T02:32:57.121Z,21.70
2018-06-08T02:35:00.268Z,21.70
2018-06-08T02:37:03.434Z,21.60
2018-06-08T02:39:08.259Z,21.60
2018-06-08T02:41:11.429Z,21.60
2018-06-08T02:43:14.602Z,21.60
2018-06-08T02:45:17.778Z,21.60
2018-06-08T02:47:21.003Z,21.60
2018-06-08T02:49:24.152Z,21.60
2018-06-08T02:51:27.634Z,21.60
2018-06-08T02:53:30.772Z,21.50
2018-06-08T02:55:33.900Z,21.60
2018-06-08T02:57:37.048Z,21.60
2018-06-08T02:59:40.197Z,21.60
2018-06-08T03:01:43.349Z,21.50
2018-06-08T03:03:46.491Z,21.50
2018-06-08T03:05:49.648Z,21.60
2018-06-08T03:07:52.790Z,21.60
2018-06-08T03:09:55.945Z,21.60
2018-06-08T03:11:59.130Z,21.60
2018-06-08T03:14:02.236Z,21.60
2018-06-08T03:16:05.633Z,21.60
2018-06-08T03:18:09.437Z,21.60
2018-06-08T03:20:12.589Z,21.70
2018-06-08T03:22:15.800Z,21.70
2018-06-08T03:24:18.936Z,21.70
2018-06-08T03:26:22.086Z,21.70
2018-06-08T03:28:25.242Z,21.70
2018-06-08T03:30:28.384Z,21.80
2018-06-08T03:32:31.572Z,21.80
2018-06-08T03:34:34.720Z,21.80
2018-06-08T03:36:37.877Z,21.80
2018-06-08T03:38:41.471Z,21.90
2018-06-08T03:40:44.622Z,21.90
2018-06-08T03:42:47.772Z,21.90
2018-06-08T03:44:50.935Z,21.90
2018-06-08T03:46:54.111Z,21.90
2018-06-08T03:48:57.303Z,21.90
2018-06-08T03:51:00.404Z,21.90
2018-06-08T03:53:03.577Z,21.90
2018-06-08T03:55:06.730Z,21.90
2018-06-08T03:57:09.888Z,21.90
2018-06-08T03:59:13.027Z,21.90
2018-06-08T04:01:16.192Z,21.90
2018-06-08T04:03:19.336Z,22.00
2018-06-08T04:05:23.362Z,22.00
2018-06-08T04:07:26.535Z,22.00
2018-06-08T04:09:29.689Z,22.00
2018-06-08T04:11:33.353Z,22.10
2018-06-08T04:13:37.489Z,22.00
2018-06-08T04:15:40.649Z,22.00
2018-06-08T04:17:43.791Z,22.10
2018-06-08T04:19:46.944Z,22.10
2018-06-08T04:21:50.179Z,22.00
2018-06-08T04:23:53.332Z,22.00
2018-06-08T04:25:56.471Z,22.10
2018-06-08T04:27:59.632Z,22.10
2018-06-08T04:30:03.776Z,22.10
2018-06-08T04:32:06.948Z,22.20
2018-06-08T04:34:10.116Z,22.10
2018-06-08T04:36:13.271Z,22.20
2018-06-08T04:38:16.438Z,22.20
2018-06-08T04:40:19.572Z,22.20
2018-06-08T04:42:22.735Z,22.20
2018-06-08T04:44:25.867Z,22.20
2018-06-08T04:46:29.016Z,22.20
2018-06-08T04:48:32.184Z,22.20
2018-06-08T04:50:35.308Z,22.20
2018-06-08T04:52:38.481Z,22.20
2018-06-08T04:54:41.647Z,22.20
2018-06-08T04:56:44.800Z,22.10
2018-06-08T04:58:47.960Z,22.10
2018-06-08T05:00:51.092Z,22.10
2018-06-08T05:02:54.261Z,22.20
2018-06-08T05:04:57.404Z,22.20
2018-06-08T05:07:00.555Z,22.10
2018-06-08T05:09:04.473Z,22.10
2018-06-08T05:11:07.596Z,21.90
2018-06-08T05:13:10.739Z,21.90
2018-06-08T05:15:13.867Z,22.10
2018-06-08T05:17:17.027Z,22.40
2018-06-08T05:19:20.181Z,22.70
2018-06-08T05:21:23.420Z,22.90
2018-06-08T05:23:26.570Z,23.20
2018-06-08T05:25:29.693Z,23.30
2018-06-08T05:27:32.839Z,23.50
2018-06-08T05:29:35.967Z,23.50
2018-06-08T05:31:39.092Z,23.60
2018-06-08T05:33:42.244Z,23.60
2018-06-08T05:35:45.375Z,23.60
2018-06-08T05:37:48.653Z,23.60
2018-06-08T05:39:51.800Z,23.60
2018-06-08T05:41:54.956Z,23.60
2018-06-08T05:43:58.104Z,23.70
2018-06-08T05:46:01.273Z,23.70
2018-06-08T05:50:07.491Z,23.90
2018-06-08T05:52:10.639Z,23.90
2018-06-08T05:54:13.825Z,24.00
2018-06-08T05:56:16.969Z,24.10
2018-06-08T05:58:20.179Z,24.10
2018-06-08T06:00:23.313Z,24.20
2018-06-08T06:02:26.473Z,24.20
2018-06-08T06:04:29.663Z,24.20
2018-06-08T06:06:32.820Z,24.30
2018-06-08T06:10:38.944Z,24.40
2018-06-08T06:12:42.081Z,24.40
2018-06-08T06:14:45.232Z,24.40
2018-06-08T06:16:48.368Z,24.40
2018-06-08T06:18:51.523Z,24.50
2018-06-08T06:20:54.703Z,24.50
2018-06-08T06:22:58.001Z,24.60
2018-06-08T06:25:01.557Z,24.70
2018-06-08T06:27:04.721Z,24.80
2018-06-08T06:29:07.896Z,24.80
2018-06-08T06:31:11.044Z,24.90
2018-06-08T06:33:14.288Z,25.00
2018-06-08T06:35:17.440Z,25.10
2018-06-08T06:39:23.571Z,25.30
2018-06-08T06:41:26.735Z,25.40
2018-06-08T06:43:32.711Z,25.50
2018-06-08T06:45:35.952Z,25.60
2018-06-08T06:47:39.129Z,25.80
2018-06-08T06:51:45.268Z,26.00
2018-06-08T06:53:49.055Z,26.10
2018-06-08T06:55:52.201Z,26.20
2018-06-08T06:57:55.386Z,26.30
2018-06-08T06:59:58.527Z,26.50
2018-06-08T07:02:01.769Z,26.70
2018-06-08T07:04:04.969Z,26.90
2018-06-08T07:06:08.167Z,27.00
2018-06-08T07:08:11.357Z,27.20
2018-06-08T07:10:14.527Z,27.20
2018-06-08T07:12:18.154Z,27.30
2018-06-08T07:14:21.384Z,27.30
2018-06-08T07:16:24.731Z,27.40
2018-06-08T07:18:28.090Z,27.40
2018-06-08T07:20:31.318Z,27.30
2018-06-08T07:22:35.440Z,27.40
2018-06-08T07:24:39.092Z,27.40
2018-06-08T07:26:42.682Z,27.40
2018-06-08T07:28:46.017Z,27.10
2018-06-08T07:30:49.271Z,27.00
2018-06-08T07:32:52.466Z,27.00
2018-06-08T07:34:55.760Z,26.90
2018-06-08T07:36:58.891Z,26.90
2018-06-08T07:41:05.048Z,27.00
2018-06-08T07:43:08.593Z,27.00
2018-06-08T07:45:11.770Z,27.00
2018-06-08T07:47:14.997Z,27.00
2018-06-08T07:49:18.245Z,27.10
2018-06-08T07:51:21.389Z,27.10
2018-06-08T07:53:24.610Z,27.20
2018-06-08T07:55:28.232Z,27.10
2018-06-08T07:57:31.691Z,27.00
2018-06-08T07:59:35.252Z,27.00
2018-06-08T08:01:38.528Z,27.00
2018-06-08T08:03:41.751Z,26.80
2018-06-08T08:07:47.900Z,26.60
2018-06-08T08:09:51.036Z,26.70
2018-06-08T08:11:54.176Z,26.70
2018-06-08T08:13:57.311Z,26.50
2018-06-08T08:16:00.435Z,26.50
2018-06-08T08:18:03.571Z,26.60
2018-06-08T08:20:06.695Z,26.70
2018-06-08T08:22:09.815Z,26.70
2018-06-08T08:24:13.191Z,26.80
2018-06-08T08:26:16.444Z,26.90
2018-06-08T08:28:19.588Z,27.10
2018-06-08T08:32:26.441Z,27.10
2018-06-08T08:34:29.624Z,27.10
2018-06-08T08:36:34.216Z,27.10
2018-06-08T08:38:37.337Z,27.10
2018-06-08T08:40:40.546Z,27.00
2018-06-08T08:42:43.688Z,26.90
2018-06-08T08:44:46.888Z,26.80
2018-06-08T08:46:50.035Z,26.70
2018-06-08T08:48:53.176Z,26.70
2018-06-08T08:50:56.420Z,26.70
2018-06-08T08:52:59.668Z,26.60
2018-06-08T08:55:02.825Z,26.60
2018-06-08T08:57:06.156Z,26.50
2018-06-08T08:59:09.282Z,26.60
2018-06-08T09:01:12.427Z,26.60
2018-06-08T09:05:18.603Z,26.80
2018-06-08T09:07:21.741Z,26.90
2018-06-08T09:09:24.875Z,27.00
2018-06-08T09:11:28.032Z,27.10
2018-06-08T09:13:31.148Z,27.20
2018-06-08T09:15:34.289Z,27.20
2018-06-08T09:17:37.420Z,27.30
2018-06-08T09:19:40.569Z,27.40
2018-06-08T09:21:43.698Z,27.50
2018-06-08T09:23:46.807Z,27.70
2018-06-08T09:25:49.958Z,27.70
2018-06-08T09:27:53.098Z,27.80
2018-06-08T09:29:56.245Z,28.00
2018-06-08T09:31:59.376Z,28.10
2018-06-08T09:34:02.516Z,28.30
2018-06-08T09:36:05.731Z,28.30
2018-06-08T09:38:08.938Z,28.30
2018-06-08T09:40:12.098Z,28.20
2018-06-08T09:42:15.240Z,28.20
2018-06-08T09:46:21.366Z,28.20
2018-06-08T09:48:24.527Z,28.10
2018-06-08T09:50:27.733Z,28.10
2018-06-08T09:52:30.860Z,28.00
2018-06-08T09:54:34.006Z,28.00
2018-06-08T09:56:37.135Z,27.90
2018-06-08T09:58:41.227Z,27.80
2018-06-08T10:00:44.956Z,27.80
2018-06-08T10:02:48.133Z,27.80
2018-06-08T10:04:51.247Z,27.70
2018-06-08T10:06:54.411Z,27.60
2018-06-08T10:08:57.545Z,27.40
2018-06-08T10:11:00.667Z,27.30
2018-06-08T10:13:03.809Z,27.20
2018-06-08T10:15:07.133Z,27.10
2018-06-08T10:17:10.275Z,26.90
2018-06-08T10:19:13.412Z,26.80
2018-06-08T10:21:16.528Z,26.70
2018-06-08T10:23:19.663Z,26.70
2018-06-08T10:25:22.784Z,26.60
2018-06-08T10:29:28.868Z,26.40
2018-06-08T10:31:32.008Z,26.30
2018-06-08T10:33:35.696Z,26.20
2018-06-08T10:35:38.812Z,26.00
2018-06-08T10:37:41.940Z,26.00
2018-06-08T10:39:45.114Z,25.90
2018-06-08T10:43:51.199Z,25.90
2018-06-08T10:45:54.336Z,25.80
2018-06-08T10:47:58.355Z,25.80
2018-06-08T10:52:04.424Z,25.70
2018-06-08T10:54:07.560Z,25.60
2018-06-08T10:56:10.703Z,25.50
2018-06-08T10:58:13.859Z,25.40
2018-06-08T11:00:17.004Z,25.30
2018-06-08T11:02:20.156Z,25.10
2018-06-08T11:04:23.310Z,25.00
2018-06-08T11:06:26.444Z,24.90
2018-06-08T11:08:30.381Z,24.80
2018-06-08T11:10:33.525Z,24.80
2018-06-08T11:12:36.680Z,24.70
2018-06-08T11:14:39.835Z,24.60
2018-06-08T11:16:43.056Z,24.50
2018-06-08T11:18:46.220Z,24.30
2018-06-08T11:20:49.368Z,24.20
2018-06-08T11:22:52.560Z,24.10
2018-06-08T11:24:55.732Z,24.00
2018-06-08T11:26:58.917Z,24.00
2018-06-08T11:29:02.057Z,23.90
2018-06-08T11:31:05.215Z,23.90
2018-06-08T11:33:09.276Z,23.90
2018-06-08T11:35:12.413Z,23.80
2018-06-08T11:37:15.561Z,23.80
2018-06-08T11:39:18.722Z,23.70
2018-06-08T11:41:21.858Z,23.60
2018-06-08T11:43:24.992Z,23.60
2018-06-08T11:45:28.152Z,23.40
2018-06-08T11:47:31.388Z,23.20
2018-06-08T11:49:34.865Z,23.10
2018-06-08T11:51:37.988Z,23.10
2018-06-08T11:53:42.019Z,23.00
2018-06-08T11:55:45.152Z,23.00
2018-06-08T11:57:48.275Z,23.00
2018-06-08T11:59:51.420Z,22.90
2018-06-08T12:01:54.580Z,22.80
2018-06-08T12:03:57.696Z,22.80
2018-06-08T12:06:00.836Z,22.70
2018-06-08T12:08:04.053Z,22.70
2018-06-08T12:10:07.271Z,22.70
2018-06-08T12:12:10.420Z,22.50
2018-06-08T12:14:13.604Z,22.50
2018-06-08T12:16:16.797Z,22.20
2018-06-08T12:18:20.029Z,22.10
2018-06-08T12:20:23.171Z,22.10
2018-06-08T12:22:26.295Z,22.00
2018-06-08T12:24:29.436Z,22.00
2018-06-08T12:26:32.591Z,21.80
2018-06-08T12:28:35.736Z,21.80
2018-06-08T12:30:38.875Z,22.00
2018-06-08T12:32:42.104Z,22.10
2018-06-08T12:34:45.268Z,22.10
2018-06-08T12:36:48.424Z,22.30
2018-06-08T12:38:51.584Z,22.50
2018-06-08T12:40:54.757Z,22.30
2018-06-08T12:42:57.867Z,22.30
2018-06-08T12:45:00.980Z,22.20
2018-06-08T12:47:04.128Z,22.20
2018-06-08T12:49:07.277Z,22.30
2018-06-08T12:51:10.436Z,22.30
2018-06-08T12:53:13.574Z,22.30
2018-06-08T12:55:16.716Z,22.30
2018-06-08T12:57:19.865Z,22.20
2018-06-08T12:59:23.556Z,22.00
2018-06-08T13:01:26.704Z,22.00
2018-06-08T13:03:29.829Z,21.90
2018-06-08T13:05:32.964Z,21.80
2018-06-08T13:07:36.104Z,21.90
2018-06-08T13:09:39.244Z,22.10
2018-06-08T13:11:42.360Z,22.00
2018-06-08T13:13:45.484Z,22.10
2018-06-08T13:15:48.644Z,22.00
2018-06-08T13:17:51.944Z,22.00
2018-06-08T13:19:55.081Z,22.00
2018-06-08T13:21:58.225Z,22.10
2018-06-08T13:26:04.312Z,22.20
2018-06-08T13:28:07.531Z,22.40
2018-06-08T13:30:10.663Z,22.50
2018-06-08T13:32:13.799Z,22.70
2018-06-08T13:34:16.946Z,22.90
2018-06-08T13:36:20.088Z,23.30
2018-06-08T13:38:23.220Z,23.60
2018-06-08T13:40:26.356Z,23.90
2018-06-08T13:42:29.615Z,24.10
2018-06-08T13:44:32.831Z,24.30
2018-06-08T13:46:43.552Z,24.30
2018-06-08T13:48:46.782Z,24.20
2018-06-08T13:50:49.963Z,24.50
2018-06-08T13:52:53.192Z,24.70
2018-06-08T13:56:59.220Z,24.80
2018-06-08T13:59:02.416Z,24.70
2018-06-08T14:01:05.612Z,25.00
2018-06-08T14:03:08.807Z,25.10
2018-06-08T14:07:14.840Z,25.30
2018-06-08T14:09:17.960Z,25.60
2018-06-08T14:11:21.083Z,25.80
2018-06-08T14:13:24.220Z,25.80
2018-06-08T14:15:27.352Z,25.80
2018-06-08T14:17:30.532Z,25.70
2018-06-08T14:21:36.571Z,25.60
2018-06-08T14:23:39.714Z,25.70
2018-06-08T14:25:42.857Z,25.80
2018-06-08T14:27:45.980Z,25.90
2018-06-08T14:29:49.120Z,26.10
2018-06-08T14:31:52.263Z,26.30
2018-06-08T14:33:55.399Z,26.60
2018-06-08T14:35:58.548Z,26.50
2018-06-08T14:38:01.716Z,26.40
2018-06-08T14:40:04.848Z,26.50
2018-06-08T14:42:07.979Z,26.50
2018-06-08T14:44:11.616Z,26.40
2018-06-08T14:48:17.709Z,26.10
2018-06-08T14:50:20.848Z,26.10
2018-06-08T14:52:23.980Z,26.00
2018-06-08T14:54:27.223Z,26.00
2018-06-08T14:56:30.359Z,25.90
2018-06-08T14:58:33.514Z,26.20
2018-06-08T15:00:36.649Z,26.30
2018-06-08T15:02:39.816Z,26.40
2018-06-08T15:04:42.991Z,26.50
2018-06-08T15:06:46.072Z,26.60
2018-06-08T15:08:49.188Z,26.80
2018-06-08T15:10:52.423Z,27.10
2018-06-08T15:12:55.543Z,26.90
2018-06-08T15:14:58.716Z,26.70
2018-06-08T15:17:01.876Z,26.60
2018-06-08T15:19:05.030Z,26.60
2018-06-08T15:21:08.161Z,26.50
2018-06-08T15:23:11.332Z,26.60
2018-06-08T15:25:14.439Z,26.50
2018-06-08T15:29:20.589Z,26.40
2018-06-08T15:31:23.674Z,26.40
2018-06-08T15:33:26.816Z,26.70
2018-06-08T15:35:30.005Z,26.90
2018-06-08T15:37:33.124Z,27.00
2018-06-08T15:39:36.311Z,27.00
2018-06-08T15:41:39.452Z,26.90
2018-06-08T15:43:42.577Z,26.80
2018-06-08T15:45:45.716Z,26.70
2018-06-08T15:47:48.849Z,26.80
2018-06-08T15:49:52.531Z,26.80
2018-06-08T15:51:55.668Z,27.00
2018-06-08T15:56:01.804Z,27.20
2018-06-08T15:58:04.933Z,27.30
2018-06-08T16:00:08.056Z,27.40
2018-06-08T16:02:11.194Z,27.50
2018-06-08T16:06:17.212Z,27.70
2018-06-08T16:08:20.355Z,27.50
2018-06-08T16:10:23.503Z,27.40
2018-06-08T16:12:26.636Z,27.40
2018-06-08T16:14:29.776Z,27.30
2018-06-08T16:16:32.951Z,27.20
2018-06-08T16:18:36.093Z,27.00
2018-06-08T16:20:39.822Z,26.80
2018-06-08T16:22:43.010Z,26.80
2018-06-08T16:24:46.104Z,26.80
2018-06-08T16:26:49.296Z,26.60
2018-06-08T16:28:52.433Z,26.60
2018-06-08T16:30:55.643Z,26.80
2018-06-08T16:32:58.888Z,26.90
2018-06-08T16:35:02.081Z,26.90
2018-06-08T16:37:05.472Z,26.90
2018-06-08T16:39:08.608Z,26.80
2018-06-08T16:41:11.756Z,26.80
2018-06-08T16:45:17.813Z,27.00
2018-06-08T16:47:20.936Z,27.10
2018-06-08T16:49:24.080Z,27.10
2018-06-08T16:51:27.196Z,27.20
2018-06-08T16:53:30.336Z,27.20
2018-06-08T16:55:33.475Z,27.10
2018-06-08T16:57:36.624Z,27.00
2018-06-08T16:59:39.760Z,27.00
2018-06-08T17:01:42.885Z,27.10
2018-06-08T17:03:46.797Z,27.10
2018-06-08T17:05:49.933Z,27.00
2018-06-08T17:07:53.139Z,27.00
2018-06-08T17:09:56.272Z,27.00
2018-06-08T17:11:59.457Z,27.10
2018-06-08T17:16:05.618Z,27.00
2018-06-08T17:18:08.749Z,27.00
2018-06-08T17:20:11.868Z,27.00
2018-06-08T17:22:15.052Z,27.10
2018-06-08T17:24:18.216Z,27.20
2018-06-08T17:26:21.360Z,27.30
2018-06-08T17:28:24.496Z,27.30
2018-06-08T17:30:27.657Z,27.20
2018-06-08T17:32:30.923Z,27.20
2018-06-08T17:38:40.067Z,28.00
2018-06-08T17:42:46.255Z,29.40
2018-06-08T17:44:49.396Z,30.10
2018-06-08T17:46:52.532Z,30.00
2018-06-08T17:48:55.665Z,29.40
2018-06-08T17:50:58.811Z,28.90
2018-06-08T17:53:02.548Z,29.10
2018-06-08T17:55:05.736Z,28.80
2018-06-08T17:57:08.935Z,28.60
2018-06-08T17:59:12.024Z,28.70
2018-06-08T18:01:15.188Z,28.70
2018-06-08T18:03:18.341Z,28.70
2018-06-08T18:05:21.473Z,28.60
2018-06-08T18:07:24.662Z,28.90
2018-06-08T18:09:27.850Z,28.90
2018-06-08T18:11:31.032Z,28.30
2018-06-08T18:13:34.228Z,27.70
2018-06-08T18:15:37.388Z,27.20
2018-06-08T18:17:40.656Z,26.80
2018-06-08T18:19:43.730Z,26.60
2018-06-08T18:21:46.867Z,26.40
2018-06-08T18:23:50.022Z,26.20
2018-06-08T18:25:54.147Z,26.10
2018-06-08T18:27:57.303Z,26.00
2018-06-08T18:30:00.448Z,25.90
2018-06-08T18:32:03.698Z,25.80
2018-06-08T18:34:06.920Z,25.70
2018-06-08T18:36:10.084Z,25.60
2018-06-08T18:38:13.239Z,25.60
2018-06-08T18:40:16.412Z,25.50
2018-06-08T18:42:19.579Z,25.50
2018-06-08T18:44:22.716Z,25.50
2018-06-08T18:46:25.886Z,25.40
2018-06-08T18:48:29.024Z,25.30
2018-06-08T18:50:32.181Z,25.30
2018-06-08T18:52:35.328Z,25.30
2018-06-08T18:54:38.456Z,25.30
2018-06-08T18:56:41.604Z,25.30
2018-06-08T18:58:44.759Z,25.20
2018-06-08T19:00:47.900Z,25.20
2018-06-08T19:02:51.068Z,25.10
2018-06-08T19:04:54.212Z,25.00
2018-06-08T19:06:57.355Z,25.00
2018-06-08T19:09:00.497Z,24.80
2018-06-08T19:11:03.648Z,24.80
2018-06-08T19:13:06.795Z,24.70
2018-06-08T19:15:09.932Z,24.60
2018-06-08T19:17:13.079Z,24.40
2018-06-08T19:19:16.263Z,24.30
2018-06-08T19:23:22.392Z,24.20
2018-06-08T19:25:25.547Z,24.10
2018-06-08T19:27:28.698Z,24.00
2018-06-08T19:29:31.840Z,23.90
2018-06-08T19:31:34.975Z,23.90
2018-06-08T19:33:38.119Z,23.80
2018-06-08T19:35:41.281Z,23.80
2018-06-08T19:37:44.429Z,23.70
2018-06-08T19:39:47.580Z,23.60
2018-06-08T19:41:51.660Z,23.60
2018-06-08T19:43:54.775Z,23.50
2018-06-08T19:45:57.928Z,23.40
2018-06-08T19:48:01.085Z,23.40
2018-06-08T19:50:04.240Z,23.40
2018-06-08T19:52:07.676Z,23.30
2018-06-08T19:54:10.928Z,23.30
2018-06-08T19:56:14.051Z,23.20
2018-06-08T19:58:17.210Z,23.20
2018-06-08T20:00:20.352Z,23.20
2018-06-08T20:02:23.540Z,23.20
2018-06-08T20:04:26.684Z,23.10
2018-06-08T20:06:29.812Z,23.10
2018-06-08T20:08:32.965Z,23.10
2018-06-08T20:10:36.103Z,23.10
2018-06-08T20:12:39.264Z,23.10
2018-06-08T20:14:42.392Z,23.10
2018-06-08T20:16:45.536Z,23.00
2018-06-08T20:18:48.747Z,22.90
2018-06-08T20:20:51.932Z,22.90
2018-06-08T20:22:55.061Z,22.80
2018-06-08T20:24:58.224Z,22.70
2018-06-08T20:27:01.434Z,22.70
2018-06-08T20:29:04.571Z,22.70
2018-06-08T20:31:07.724Z,22.60
2018-06-08T20:33:10.987Z,22.60
2018-06-08T20:35:14.951Z,22.60
2018-06-08T20:37:18.100Z,22.60
2018-06-08T20:39:21.223Z,22.50
2018-06-08T20:41:24.383Z,22.40
2018-06-08T20:43:27.599Z,22.40
2018-06-08T20:45:30.788Z,22.40
2018-06-08T20:47:33.912Z,22.40
2018-06-08T20:49:37.043Z,22.30
2018-06-08T20:51:40.190Z,22.30
2018-06-08T20:53:43.315Z,22.30
2018-06-08T20:55:46.496Z,22.40
2018-06-08T20:58:00.097Z,22.40
2018-06-08T21:00:03.283Z,22.30
2018-06-08T21:02:06.957Z,22.40
2018-06-08T21:04:10.032Z,22.40
2018-06-08T21:06:13.172Z,22.40
2018-06-08T21:08:16.336Z,22.40
2018-06-08T21:10:19.503Z,22.30
2018-06-08T21:14:25.612Z,22.30
2018-06-08T21:16:28.770Z,22.30
2018-06-08T21:20:34.891Z,22.20
2018-06-08T21:22:38.067Z,22.20
2018-06-08T21:24:41.189Z,22.20
2018-06-08T21:26:44.360Z,22.20
2018-06-08T21:28:47.508Z,22.20
2018-06-08T21:30:50.645Z,22.10
2018-06-08T21:34:56.709Z,22.00
2018-06-08T21:36:59.863Z,21.90
2018-06-08T21:39:03.033Z,21.90
2018-06-08T21:41:06.206Z,21.90
2018-06-08T21:43:09.331Z,21.90
2018-06-08T21:45:12.503Z,21.90
2018-06-08T21:47:15.633Z,21.90
2018-06-08T21:49:18.768Z,21.90
2018-06-08T21:51:21.989Z,21.90
2018-06-08T21:53:25.132Z,21.90
2018-06-08T21:55:28.315Z,21.90
2018-06-08T21:57:31.498Z,21.90
2018-06-08T21:59:34.617Z,21.90
2018-06-08T22:01:37.769Z,21.80
2018-06-08T22:03:41.027Z,21.80
2018-06-08T22:05:44.156Z,21.70
2018-06-08T22:07:47.344Z,21.70
2018-06-08T22:09:50.468Z,21.60
2018-06-08T22:11:53.620Z,21.60
2018-06-08T22:13:56.832Z,21.50
2018-06-08T22:15:59.973Z,21.50
2018-06-08T22:18:03.108Z,21.50
2018-06-08T22:20:06.267Z,21.60
2018-06-08T22:22:09.542Z,21.60
2018-06-08T22:24:12.670Z,21.50
2018-06-08T22:26:15.889Z,21.50
2018-06-08T22:28:18.973Z,21.50
2018-06-08T22:30:22.122Z,21.40
2018-06-08T22:32:25.340Z,21.40
2018-06-08T22:34:28.484Z,21.30
2018-06-08T22:36:31.608Z,21.20
2018-06-08T22:38:34.756Z,21.20
2018-06-08T22:40:37.906Z,21.10
2018-06-08T22:42:41.044Z,21.10
2018-06-08T22:44:44.196Z,21.10
2018-06-08T22:46:47.332Z,21.00
2018-06-08T22:48:50.492Z,21.00
2018-06-08T22:50:53.643Z,21.00
2018-06-08T22:52:56.803Z,20.90
2018-06-08T22:54:59.933Z,20.90
2018-06-08T22:57:03.172Z,20.80
2018-06-08T22:59:06.311Z,20.80
2018-06-08T23:01:09.440Z,20.70
2018-06-08T23:03:12.589Z,20.60
2018-06-08T23:05:15.737Z,20.60
2018-06-08T23:07:18.877Z,20.50
2018-06-08T23:09:22.017Z,20.50
2018-06-08T23:11:25.255Z,20.40
2018-06-08T23:13:28.344Z,20.40
2018-06-08T23:18:05.078Z,20.30
2018-06-08T23:20:08.201Z,20.30
2018-06-08T23:22:11.310Z,20.20
2018-06-08T23:24:14.433Z,20.20
2018-06-08T23:26:17.552Z,20.10
2018-06-08T23:28:20.661Z,20.10
2018-06-08T23:30:23.790Z,20.10
2018-06-08T23:32:26.911Z,20.10
2018-06-08T23:34:30.072Z,20.10
2018-06-08T23:36:33.175Z,20.10
2018-06-08T23:38:36.285Z,20.00
2018-06-08T23:40:39.424Z,20.00
2018-06-08T23:42:42.548Z,20.00
2018-06-08T23:44:45.688Z,19.90
2018-06-08T23:46:48.824Z,19.90
2018-06-08T23:48:51.960Z,19.80
2018-06-08T23:50:55.111Z,19.80
2018-06-08T23:52:58.252Z,19.70
2018-06-08T23:55:01.397Z,19.80
2018-06-08T23:57:04.708Z,19.80
2018-06-08T23:59:07.848Z,19.70
